sensor_id;sensor_type;location;lat;lon;timestamp;P1;durP1;ratioP1;P2;durP2;ratioP2
15194;SDS011;7698;42.478;23.756;2022-07-22T00:00:18;11.93;;;11.13;;
15194;SDS011;7698;42.478;23.756;2022-07-22T00:02:45;12.15;;;11.50;;
15194;SDS011;7698;42.478;23.756;2022-07-22T00:05:12;11.15;;;10.50;;
15194;SDS011;7698;42.478;23.756;2022-07-22T00:07:40;22.73;;;21.48;;
15194;SDS011;7698;42.478;23.756;2022-07-22T00:10:07;17.95;;;17.05;;
15194;SDS011;7698;42.478;23.756;2022-07-22T00:12:36;14.07;;;13.05;;
15194;SDS011;7698;42.478;23.756;2022-07-22T00:15:04;15.07;;;14.05;;
15194;SDS011;7698;42.478;23.756;2022-07-22T00:17:32;22.83;;;21.65;;
15194;SDS011;7698;42.478;23.756;2022-07-22T00:20:02;42.83;;;40.63;;
15194;SDS011;7698;42.478;23.756;2022-07-22T00:22:29;51.20;;;49.05;;
15194;SDS011;7698;42.478;23.756;2022-07-22T00:24:58;26.27;;;25.00;;
15194;SDS011;7698;42.478;23.756;2022-07-22T00:27:25;10.43;;;9.77;;
15194;SDS011;7698;42.478;23.756;2022-07-22T00:29:51;12.07;;;11.18;;
15194;SDS011;7698;42.478;23.756;2022-07-22T00:32:18;10.32;;;9.70;;
15194;SDS011;7698;42.478;23.756;2022-07-22T00:34:45;20.92;;;19.73;;
15194;SDS011;7698;42.478;23.756;2022-07-22T00:37:12;18.13;;;17.08;;
15194;SDS011;7698;42.478;23.756;2022-07-22T00:39:39;18.35;;;17.50;;
15194;SDS011;7698;42.478;23.756;2022-07-22T00:42:08;20.77;;;19.88;;
15194;SDS011;7698;42.478;23.756;2022-07-22T00:44:34;19.15;;;18.20;;
15194;SDS011;7698;42.478;23.756;2022-07-22T00:47:01;21.02;;;19.95;;
15194;SDS011;7698;42.478;23.756;2022-07-22T00:49:29;43.10;;;40.88;;
15194;SDS011;7698;42.478;23.756;2022-07-22T00:51:56;40.70;;;38.83;;
15194;SDS011;7698;42.478;23.756;2022-07-22T00:54:23;38.92;;;37.33;;
15194;SDS011;7698;42.478;23.756;2022-07-22T00:56:50;36.53;;;34.78;;
15194;SDS011;7698;42.478;23.756;2022-07-22T00:59:18;34.28;;;32.63;;
15194;SDS011;7698;42.478;23.756;2022-07-22T01:01:45;33.70;;;32.10;;
15194;SDS011;7698;42.478;23.756;2022-07-22T01:04:12;31.52;;;30.13;;
15194;SDS011;7698;42.478;23.756;2022-07-22T01:06:39;32.72;;;31.20;;
15194;SDS011;7698;42.478;23.756;2022-07-22T01:09:09;31.75;;;30.23;;
15194;SDS011;7698;42.478;23.756;2022-07-22T01:11:36;28.30;;;27.00;;
15194;SDS011;7698;42.478;23.756;2022-07-22T01:14:03;25.95;;;24.65;;
15194;SDS011;7698;42.478;23.756;2022-07-22T01:16:32;25.02;;;23.77;;
15194;SDS011;7698;42.478;23.756;2022-07-22T01:18:59;21.55;;;20.30;;
15194;SDS011;7698;42.478;23.756;2022-07-22T01:21:27;22.77;;;21.48;;
15194;SDS011;7698;42.478;23.756;2022-07-22T01:23:54;21.48;;;20.33;;
15194;SDS011;7698;42.478;23.756;2022-07-22T01:26:21;21.58;;;20.42;;
15194;SDS011;7698;42.478;23.756;2022-07-22T01:28:48;19.23;;;18.13;;
15194;SDS011;7698;42.478;23.756;2022-07-22T01:31:15;21.08;;;20.05;;
15194;SDS011;7698;42.478;23.756;2022-07-22T01:33:42;19.42;;;18.13;;
15194;SDS011;7698;42.478;23.756;2022-07-22T01:36:09;19.02;;;17.95;;
15194;SDS011;7698;42.478;23.756;2022-07-22T01:38:37;19.10;;;18.10;;
15194;SDS011;7698;42.478;23.756;2022-07-22T01:41:04;18.42;;;17.50;;
15194;SDS011;7698;42.478;23.756;2022-07-22T01:43:31;20.38;;;19.27;;
15194;SDS011;7698;42.478;23.756;2022-07-22T01:45:59;15.82;;;14.80;;
15194;SDS011;7698;42.478;23.756;2022-07-22T01:48:25;19.05;;;17.98;;
15194;SDS011;7698;42.478;23.756;2022-07-22T01:50:52;20.00;;;18.70;;
15194;SDS011;7698;42.478;23.756;2022-07-22T01:53:19;35.20;;;32.78;;
15194;SDS011;7698;42.478;23.756;2022-07-22T01:55:47;25.65;;;23.98;;
15194;SDS011;7698;42.478;23.756;2022-07-22T01:58:15;24.52;;;22.90;;
15194;SDS011;7698;42.478;23.756;2022-07-22T02:00:42;33.65;;;31.30;;
15194;SDS011;7698;42.478;23.756;2022-07-22T02:03:09;44.83;;;42.20;;
15194;SDS011;7698;42.478;23.756;2022-07-22T02:05:36;41.58;;;38.63;;
15194;SDS011;7698;42.478;23.756;2022-07-22T02:08:04;36.00;;;33.42;;
15194;SDS011;7698;42.478;23.756;2022-07-22T02:10:33;26.77;;;25.08;;
15194;SDS011;7698;42.478;23.756;2022-07-22T02:13:02;34.70;;;32.38;;
15194;SDS011;7698;42.478;23.756;2022-07-22T02:15:29;28.33;;;26.15;;
15194;SDS011;7698;42.478;23.756;2022-07-22T02:17:57;26.77;;;24.88;;
15194;SDS011;7698;42.478;23.756;2022-07-22T02:20:24;27.38;;;25.65;;
15194;SDS011;7698;42.478;23.756;2022-07-22T02:22:50;18.40;;;17.25;;
15194;SDS011;7698;42.478;23.756;2022-07-22T02:25:17;21.08;;;19.75;;
15194;SDS011;7698;42.478;23.756;2022-07-22T02:27:44;15.75;;;14.68;;
15194;SDS011;7698;42.478;23.756;2022-07-22T02:30:12;12.55;;;11.75;;
15194;SDS011;7698;42.478;23.756;2022-07-22T02:32:39;13.13;;;12.18;;
15194;SDS011;7698;42.478;23.756;2022-07-22T02:35:06;16.88;;;15.90;;
15194;SDS011;7698;42.478;23.756;2022-07-22T02:37:33;12.80;;;12.02;;
15194;SDS011;7698;42.478;23.756;2022-07-22T02:40:02;14.40;;;13.50;;
15194;SDS011;7698;42.478;23.756;2022-07-22T02:42:30;14.02;;;13.02;;
15194;SDS011;7698;42.478;23.756;2022-07-22T02:44:57;40.47;;;38.47;;
15194;SDS011;7698;42.478;23.756;2022-07-22T02:47:25;40.72;;;38.83;;
15194;SDS011;7698;42.478;23.756;2022-07-22T02:49:52;46.47;;;44.40;;
15194;SDS011;7698;42.478;23.756;2022-07-22T02:52:19;45.17;;;42.90;;
15194;SDS011;7698;42.478;23.756;2022-07-22T02:54:45;42.83;;;40.47;;
15194;SDS011;7698;42.478;23.756;2022-07-22T02:57:12;33.13;;;31.38;;
15194;SDS011;7698;42.478;23.756;2022-07-22T02:59:39;25.40;;;24.13;;
15194;SDS011;7698;42.478;23.756;2022-07-22T03:02:06;26.45;;;25.05;;
15194;SDS011;7698;42.478;23.756;2022-07-22T03:04:34;24.00;;;22.73;;
15194;SDS011;7698;42.478;23.756;2022-07-22T03:07:01;23.92;;;22.38;;
15194;SDS011;7698;42.478;23.756;2022-07-22T03:09:28;19.65;;;18.38;;
15194;SDS011;7698;42.478;23.756;2022-07-22T03:11:55;20.55;;;19.38;;
15194;SDS011;7698;42.478;23.756;2022-07-22T03:14:21;26.00;;;24.65;;
15194;SDS011;7698;42.478;23.756;2022-07-22T03:16:48;15.98;;;14.98;;
15194;SDS011;7698;42.478;23.756;2022-07-22T03:19:15;24.52;;;23.27;;
15194;SDS011;7698;42.478;23.756;2022-07-22T03:21:43;29.23;;;27.60;;
15194;SDS011;7698;42.478;23.756;2022-07-22T03:24:10;27.13;;;25.50;;
15194;SDS011;7698;42.478;23.756;2022-07-22T03:26:37;28.70;;;26.98;;
15194;SDS011;7698;42.478;23.756;2022-07-22T03:29:04;34.10;;;32.33;;
15194;SDS011;7698;42.478;23.756;2022-07-22T03:31:30;24.27;;;22.83;;
15194;SDS011;7698;42.478;23.756;2022-07-22T03:33:57;32.35;;;30.55;;
15194;SDS011;7698;42.478;23.756;2022-07-22T03:36:26;36.17;;;33.97;;
15194;SDS011;7698;42.478;23.756;2022-07-22T03:38:55;35.88;;;33.72;;
15194;SDS011;7698;42.478;23.756;2022-07-22T03:41:22;47.53;;;44.83;;
15194;SDS011;7698;42.478;23.756;2022-07-22T03:43:48;49.67;;;46.78;;
15194;SDS011;7698;42.478;23.756;2022-07-22T03:46:15;51.35;;;48.05;;
15194;SDS011;7698;42.478;23.756;2022-07-22T03:48:42;53.58;;;50.22;;
15194;SDS011;7698;42.478;23.756;2022-07-22T03:51:09;58.00;;;54.65;;
15194;SDS011;7698;42.478;23.756;2022-07-22T03:53:36;60.40;;;57.03;;
15194;SDS011;7698;42.478;23.756;2022-07-22T03:56:05;63.42;;;59.78;;
15194;SDS011;7698;42.478;23.756;2022-07-22T03:58:32;62.30;;;58.92;;
15194;SDS011;7698;42.478;23.756;2022-07-22T04:00:59;58.38;;;55.13;;
15194;SDS011;7698;42.478;23.756;2022-07-22T04:03:26;54.83;;;51.97;;
15194;SDS011;7698;42.478;23.756;2022-07-22T04:05:53;57.33;;;54.25;;
15194;SDS011;7698;42.478;23.756;2022-07-22T04:08:20;59.67;;;56.67;;
15194;SDS011;7698;42.478;23.756;2022-07-22T04:10:47;60.80;;;57.65;;
15194;SDS011;7698;42.478;23.756;2022-07-22T04:13:15;57.85;;;54.85;;
15194;SDS011;7698;42.478;23.756;2022-07-22T04:15:42;49.85;;;47.38;;
15194;SDS011;7698;42.478;23.756;2022-07-22T04:18:09;55.92;;;53.00;;
15194;SDS011;7698;42.478;23.756;2022-07-22T04:20:36;67.93;;;63.60;;
15194;SDS011;7698;42.478;23.756;2022-07-22T04:23:03;80.80;;;75.88;;
15194;SDS011;7698;42.478;23.756;2022-07-22T04:25:31;95.10;;;89.07;;
15194;SDS011;7698;42.478;23.756;2022-07-22T04:27:58;127.70;;;117.60;;
15194;SDS011;7698;42.478;23.756;2022-07-22T04:30:26;120.80;;;111.88;;
15194;SDS011;7698;42.478;23.756;2022-07-22T04:32:54;99.55;;;94.03;;
15194;SDS011;7698;42.478;23.756;2022-07-22T04:35:20;99.70;;;94.07;;
15194;SDS011;7698;42.478;23.756;2022-07-22T04:37:47;143.00;;;135.63;;
15194;SDS011;7698;42.478;23.756;2022-07-22T04:40:14;107.93;;;103.05;;
15194;SDS011;7698;42.478;23.756;2022-07-22T04:42:42;152.02;;;145.30;;
15194;SDS011;7698;42.478;23.756;2022-07-22T04:45:09;134.23;;;128.35;;
15194;SDS011;7698;42.478;23.756;2022-07-22T04:47:38;153.73;;;146.75;;
15194;SDS011;7698;42.478;23.756;2022-07-22T04:50:05;168.07;;;160.82;;
15194;SDS011;7698;42.478;23.756;2022-07-22T04:52:33;182.50;;;174.85;;
15194;SDS011;7698;42.478;23.756;2022-07-22T04:55:00;221.98;;;212.25;;
15194;SDS011;7698;42.478;23.756;2022-07-22T04:57:27;233.05;;;222.95;;
15194;SDS011;7698;42.478;23.756;2022-07-22T04:59:54;195.85;;;187.20;;
15194;SDS011;7698;42.478;23.756;2022-07-22T05:02:21;245.63;;;235.35;;
15194;SDS011;7698;42.478;23.756;2022-07-22T05:04:50;257.17;;;246.43;;
15194;SDS011;7698;42.478;23.756;2022-07-22T05:07:17;257.40;;;246.32;;
15194;SDS011;7698;42.478;23.756;2022-07-22T05:09:46;284.20;;;272.38;;
15194;SDS011;7698;42.478;23.756;2022-07-22T05:12:13;284.27;;;272.02;;
15194;SDS011;7698;42.478;23.756;2022-07-22T05:14:40;308.27;;;294.92;;
15194;SDS011;7698;42.478;23.756;2022-07-22T05:17:09;225.32;;;215.68;;
15194;SDS011;7698;42.478;23.756;2022-07-22T05:19:37;228.15;;;218.27;;
15194;SDS011;7698;42.478;23.756;2022-07-22T05:22:07;215.00;;;205.52;;
15194;SDS011;7698;42.478;23.756;2022-07-22T05:24:36;230.10;;;219.82;;
15194;SDS011;7698;42.478;23.756;2022-07-22T05:27:04;260.63;;;248.88;;
15194;SDS011;7698;42.478;23.756;2022-07-22T05:29:31;290.33;;;277.63;;
15194;SDS011;7698;42.478;23.756;2022-07-22T05:31:58;321.10;;;305.80;;
15194;SDS011;7698;42.478;23.756;2022-07-22T05:34:25;331.75;;;316.17;;
15194;SDS011;7698;42.478;23.756;2022-07-22T05:36:52;454.52;;;432.08;;
15194;SDS011;7698;42.478;23.756;2022-07-22T05:39:21;467.20;;;442.95;;
15194;SDS011;7698;42.478;23.756;2022-07-22T05:41:49;529.13;;;500.05;;
15194;SDS011;7698;42.478;23.756;2022-07-22T05:44:17;723.80;;;668.45;;
15194;SDS011;7698;42.478;23.756;2022-07-22T05:46:44;582.83;;;546.42;;
15194;SDS011;7698;42.478;23.756;2022-07-22T05:49:11;565.08;;;533.45;;
15194;SDS011;7698;42.478;23.756;2022-07-22T05:51:39;479.85;;;454.27;;
15194;SDS011;7698;42.478;23.756;2022-07-22T05:54:07;463.13;;;438.02;;
15194;SDS011;7698;42.478;23.756;2022-07-22T05:56:36;495.63;;;468.08;;
15194;SDS011;7698;42.478;23.756;2022-07-22T05:59:03;499.13;;;470.83;;
15194;SDS011;7698;42.478;23.756;2022-07-22T06:01:30;520.63;;;491.55;;
15194;SDS011;7698;42.478;23.756;2022-07-22T06:03:57;538.65;;;506.92;;
15194;SDS011;7698;42.478;23.756;2022-07-22T06:06:24;579.55;;;542.08;;
15194;SDS011;7698;42.478;23.756;2022-07-22T06:08:51;618.33;;;579.20;;
15194;SDS011;7698;42.478;23.756;2022-07-22T06:11:18;594.58;;;556.08;;
15194;SDS011;7698;42.478;23.756;2022-07-22T06:13:47;630.92;;;590.92;;
15194;SDS011;7698;42.478;23.756;2022-07-22T06:16:13;636.55;;;597.03;;
15194;SDS011;7698;42.478;23.756;2022-07-22T06:18:41;605.08;;;564.80;;
15194;SDS011;7698;42.478;23.756;2022-07-22T06:21:08;609.47;;;572.15;;
15194;SDS011;7698;42.478;23.756;2022-07-22T06:23:35;639.00;;;599.17;;
15194;SDS011;7698;42.478;23.756;2022-07-22T06:26:03;664.92;;;622.10;;
15194;SDS011;7698;42.478;23.756;2022-07-22T06:28:30;665.30;;;620.63;;
15194;SDS011;7698;42.478;23.756;2022-07-22T06:30:59;672.03;;;627.20;;
15194;SDS011;7698;42.478;23.756;2022-07-22T06:33:26;682.47;;;636.40;;
15194;SDS011;7698;42.478;23.756;2022-07-22T06:35:54;672.17;;;626.45;;
15194;SDS011;7698;42.478;23.756;2022-07-22T06:38:22;680.90;;;633.58;;
15194;SDS011;7698;42.478;23.756;2022-07-22T06:40:49;702.13;;;652.78;;
15194;SDS011;7698;42.478;23.756;2022-07-22T06:43:16;713.63;;;664.00;;
15194;SDS011;7698;42.478;23.756;2022-07-22T06:45:43;714.10;;;663.63;;
15194;SDS011;7698;42.478;23.756;2022-07-22T06:48:12;696.33;;;647.47;;
15194;SDS011;7698;42.478;23.756;2022-07-22T06:50:39;706.28;;;656.05;;
15194;SDS011;7698;42.478;23.756;2022-07-22T06:53:06;680.80;;;633.95;;
15194;SDS011;7698;42.478;23.756;2022-07-22T06:55:33;661.75;;;616.15;;
15194;SDS011;7698;42.478;23.756;2022-07-22T06:58:01;618.45;;;577.42;;
15194;SDS011;7698;42.478;23.756;2022-07-22T07:00:28;659.63;;;616.42;;
15194;SDS011;7698;42.478;23.756;2022-07-22T07:02:57;660.05;;;614.95;;
15194;SDS011;7698;42.478;23.756;2022-07-22T07:05:26;678.15;;;629.20;;
15194;SDS011;7698;42.478;23.756;2022-07-22T07:07:54;692.78;;;644.58;;
15194;SDS011;7698;42.478;23.756;2022-07-22T07:10:22;649.40;;;601.70;;
15194;SDS011;7698;42.478;23.756;2022-07-22T07:12:49;675.75;;;627.95;;
15194;SDS011;7698;42.478;23.756;2022-07-22T07:15:16;657.00;;;610.25;;
15194;SDS011;7698;42.478;23.756;2022-07-22T07:17:45;658.17;;;607.00;;
15194;SDS011;7698;42.478;23.756;2022-07-22T07:20:13;590.75;;;553.47;;
15194;SDS011;7698;42.478;23.756;2022-07-22T07:22:42;572.63;;;534.63;;
15194;SDS011;7698;42.478;23.756;2022-07-22T07:25:10;570.53;;;533.53;;
15194;SDS011;7698;42.478;23.756;2022-07-22T07:27:38;641.58;;;597.85;;
15194;SDS011;7698;42.478;23.756;2022-07-22T07:30:10;623.75;;;581.55;;
15194;SDS011;7698;42.478;23.756;2022-07-22T07:32:39;583.53;;;544.92;;
15194;SDS011;7698;42.478;23.756;2022-07-22T07:35:07;618.20;;;574.20;;
15194;SDS011;7698;42.478;23.756;2022-07-22T07:37:36;633.58;;;589.85;;
15194;SDS011;7698;42.478;23.756;2022-07-22T07:40:05;623.92;;;579.20;;
15194;SDS011;7698;42.478;23.756;2022-07-22T07:42:33;596.03;;;555.88;;
15194;SDS011;7698;42.478;23.756;2022-07-22T07:45:01;664.15;;;606.42;;
15194;SDS011;7698;42.478;23.756;2022-07-22T07:47:29;600.13;;;559.90;;
15194;SDS011;7698;42.478;23.756;2022-07-22T07:49:57;641.38;;;595.90;;
15194;SDS011;7698;42.478;23.756;2022-07-22T07:52:27;686.22;;;633.80;;
15194;SDS011;7698;42.478;23.756;2022-07-22T07:54:55;674.25;;;623.03;;
15194;SDS011;7698;42.478;23.756;2022-07-22T07:57:24;656.25;;;607.08;;
15194;SDS011;7698;42.478;23.756;2022-07-22T07:59:51;666.28;;;610.90;;
15194;SDS011;7698;42.478;23.756;2022-07-22T08:02:19;690.70;;;639.22;;
15194;SDS011;7698;42.478;23.756;2022-07-22T08:04:46;669.72;;;619.38;;
15194;SDS011;7698;42.478;23.756;2022-07-22T08:07:13;634.33;;;585.88;;
15194;SDS011;7698;42.478;23.756;2022-07-22T08:09:41;641.70;;;591.00;;
15194;SDS011;7698;42.478;23.756;2022-07-22T08:12:09;592.47;;;549.53;;
15194;SDS011;7698;42.478;23.756;2022-07-22T08:14:39;613.53;;;570.20;;
15194;SDS011;7698;42.478;23.756;2022-07-22T08:17:06;712.28;;;655.05;;
15194;SDS011;7698;42.478;23.756;2022-07-22T08:19:35;640.13;;;593.05;;
15194;SDS011;7698;42.478;23.756;2022-07-22T08:22:03;637.10;;;590.10;;
15194;SDS011;7698;42.478;23.756;2022-07-22T08:24:30;693.72;;;639.83;;
15194;SDS011;7698;42.478;23.756;2022-07-22T08:26:58;664.85;;;615.40;;
15194;SDS011;7698;42.478;23.756;2022-07-22T08:29:26;660.75;;;611.17;;
15194;SDS011;7698;42.478;23.756;2022-07-22T08:31:56;719.47;;;657.03;;
15194;SDS011;7698;42.478;23.756;2022-07-22T08:34:24;674.75;;;622.40;;
15194;SDS011;7698;42.478;23.756;2022-07-22T08:36:52;652.28;;;598.28;;
15194;SDS011;7698;42.478;23.756;2022-07-22T08:39:19;672.60;;;615.97;;
15194;SDS011;7698;42.478;23.756;2022-07-22T08:41:47;670.45;;;620.42;;
15194;SDS011;7698;42.478;23.756;2022-07-22T08:44:15;702.80;;;645.10;;
15194;SDS011;7698;42.478;23.756;2022-07-22T08:46:43;647.28;;;600.30;;
15194;SDS011;7698;42.478;23.756;2022-07-22T08:49:14;360.60;;;340.80;;
15194;SDS011;7698;42.478;23.756;2022-07-22T08:51:42;438.13;;;407.45;;
15194;SDS011;7698;42.478;23.756;2022-07-22T08:54:09;472.48;;;439.75;;
15194;SDS011;7698;42.478;23.756;2022-07-22T08:56:36;454.48;;;425.02;;
15194;SDS011;7698;42.478;23.756;2022-07-22T08:59:04;487.52;;;455.05;;
15194;SDS011;7698;42.478;23.756;2022-07-22T09:01:31;513.50;;;469.30;;
15194;SDS011;7698;42.478;23.756;2022-07-22T09:03:59;643.90;;;595.58;;
15194;SDS011;7698;42.478;23.756;2022-07-22T09:06:27;638.08;;;590.15;;
15194;SDS011;7698;42.478;23.756;2022-07-22T09:08:59;637.92;;;581.83;;
15194;SDS011;7698;42.478;23.756;2022-07-22T09:11:28;524.88;;;493.05;;
15194;SDS011;7698;42.478;23.756;2022-07-22T09:13:56;522.65;;;491.42;;
15194;SDS011;7698;42.478;23.756;2022-07-22T09:16:38;576.65;;;537.13;;
15194;SDS011;7698;42.478;23.756;2022-07-22T09:19:06;617.30;;;573.05;;
15194;SDS011;7698;42.478;23.756;2022-07-22T09:21:36;562.22;;;527.75;;
15194;SDS011;7698;42.478;23.756;2022-07-22T09:24:05;642.65;;;595.75;;
15194;SDS011;7698;42.478;23.756;2022-07-22T09:26:33;654.92;;;606.72;;
15194;SDS011;7698;42.478;23.756;2022-07-22T09:29:01;636.60;;;591.92;;
15194;SDS011;7698;42.478;23.756;2022-07-22T09:31:30;673.22;;;621.25;;
15194;SDS011;7698;42.478;23.756;2022-07-22T09:33:59;623.63;;;575.45;;
15194;SDS011;7698;42.478;23.756;2022-07-22T09:36:27;528.90;;;496.35;;
15194;SDS011;7698;42.478;23.756;2022-07-22T09:38:55;552.08;;;510.50;;
15194;SDS011;7698;42.478;23.756;2022-07-22T09:41:23;527.05;;;490.77;;
15194;SDS011;7698;42.478;23.756;2022-07-22T09:43:50;527.45;;;491.27;;
15194;SDS011;7698;42.478;23.756;2022-07-22T09:46:17;517.80;;;483.23;;
15194;SDS011;7698;42.478;23.756;2022-07-22T09:49:00;491.90;;;460.38;;
15194;SDS011;7698;42.478;23.756;2022-07-22T09:51:27;524.53;;;487.98;;
15194;SDS011;7698;42.478;23.756;2022-07-22T09:53:58;554.63;;;518.30;;
15194;SDS011;7698;42.478;23.756;2022-07-22T09:56:25;644.85;;;594.70;;
15194;SDS011;7698;42.478;23.756;2022-07-22T09:58:55;615.35;;;571.88;;
15194;SDS011;7698;42.478;23.756;2022-07-22T10:01:22;690.55;;;633.78;;
15194;SDS011;7698;42.478;23.756;2022-07-22T10:03:51;688.30;;;622.83;;
15194;SDS011;7698;42.478;23.756;2022-07-22T10:06:21;661.65;;;608.20;;
15194;SDS011;7698;42.478;23.756;2022-07-22T10:08:48;587.67;;;546.33;;
15194;SDS011;7698;42.478;23.756;2022-07-22T10:11:18;614.30;;;567.13;;
15194;SDS011;7698;42.478;23.756;2022-07-22T10:13:46;587.00;;;542.17;;
15194;SDS011;7698;42.478;23.756;2022-07-22T10:16:14;637.45;;;585.63;;
15194;SDS011;7698;42.478;23.756;2022-07-22T10:18:44;609.42;;;565.17;;
15194;SDS011;7698;42.478;23.756;2022-07-22T10:21:12;595.35;;;545.83;;
15194;SDS011;7698;42.478;23.756;2022-07-22T10:26:50;510.85;;;456.15;;
15194;SDS011;7698;42.478;23.756;2022-07-22T10:29:26;430.92;;;402.63;;
15194;SDS011;7698;42.478;23.756;2022-07-22T10:37:51;441.17;;;408.23;;
15194;SDS011;7698;42.478;23.756;2022-07-22T10:40:21;450.70;;;420.80;;
15194;SDS011;7698;42.478;23.756;2022-07-22T10:43:08;623.10;;;573.35;;
15194;SDS011;7698;42.478;23.756;2022-07-22T10:45:37;631.28;;;570.17;;
15194;SDS011;7698;42.478;23.756;2022-07-22T10:48:06;634.15;;;582.60;;
15194;SDS011;7698;42.478;23.756;2022-07-22T10:50:39;623.45;;;574.28;;
15194;SDS011;7698;42.478;23.756;2022-07-22T10:53:18;612.60;;;558.78;;
15194;SDS011;7698;42.478;23.756;2022-07-22T10:56:01;590.75;;;547.38;;
15194;SDS011;7698;42.478;23.756;2022-07-22T10:58:45;546.58;;;504.73;;
15194;SDS011;7698;42.478;23.756;2022-07-22T11:01:17;556.13;;;514.50;;
15194;SDS011;7698;42.478;23.756;2022-07-22T11:03:45;502.50;;;469.13;;
15194;SDS011;7698;42.478;23.756;2022-07-22T11:06:17;510.15;;;475.08;;
15194;SDS011;7698;42.478;23.756;2022-07-22T11:08:51;541.45;;;501.13;;
15194;SDS011;7698;42.478;23.756;2022-07-22T11:11:30;528.92;;;489.67;;
15194;SDS011;7698;42.478;23.756;2022-07-22T11:14:00;455.85;;;426.73;;
15194;SDS011;7698;42.478;23.756;2022-07-22T11:16:27;472.80;;;440.70;;
15194;SDS011;7698;42.478;23.756;2022-07-22T11:18:55;473.80;;;443.02;;
15194;SDS011;7698;42.478;23.756;2022-07-22T11:21:24;471.25;;;442.10;;
15194;SDS011;7698;42.478;23.756;2022-07-22T11:23:54;467.92;;;437.13;;
15194;SDS011;7698;42.478;23.756;2022-07-22T11:26:25;515.20;;;478.35;;
15194;SDS011;7698;42.478;23.756;2022-07-22T11:29:00;477.15;;;447.27;;
15194;SDS011;7698;42.478;23.756;2022-07-22T11:31:27;459.55;;;428.67;;
15194;SDS011;7698;42.478;23.756;2022-07-22T11:34:03;461.98;;;431.63;;
15194;SDS011;7698;42.478;23.756;2022-07-22T11:36:32;458.90;;;430.20;;
15194;SDS011;7698;42.478;23.756;2022-07-22T11:39:00;477.67;;;446.48;;
15194;SDS011;7698;42.478;23.756;2022-07-22T11:41:28;474.95;;;443.77;;
15194;SDS011;7698;42.478;23.756;2022-07-22T11:43:55;444.10;;;416.85;;
15194;SDS011;7698;42.478;23.756;2022-07-22T11:46:24;461.67;;;432.02;;
15194;SDS011;7698;42.478;23.756;2022-07-22T11:48:52;465.10;;;435.58;;
15194;SDS011;7698;42.478;23.756;2022-07-22T11:51:19;472.05;;;440.08;;
15194;SDS011;7698;42.478;23.756;2022-07-22T11:53:46;428.85;;;404.33;;
15194;SDS011;7698;42.478;23.756;2022-07-22T11:56:13;430.10;;;402.63;;
15194;SDS011;7698;42.478;23.756;2022-07-22T11:58:41;450.90;;;419.77;;
15194;SDS011;7698;42.478;23.756;2022-07-22T12:01:10;468.42;;;438.17;;
15194;SDS011;7698;42.478;23.756;2022-07-22T12:03:41;447.80;;;418.83;;
15194;SDS011;7698;42.478;23.756;2022-07-22T12:06:13;406.55;;;381.85;;
15194;SDS011;7698;42.478;23.756;2022-07-22T12:08:42;434.15;;;407.45;;
15194;SDS011;7698;42.478;23.756;2022-07-22T12:11:11;433.58;;;407.88;;
15194;SDS011;7698;42.478;23.756;2022-07-22T12:13:40;406.40;;;384.48;;
15194;SDS011;7698;42.478;23.756;2022-07-22T12:16:18;429.83;;;403.92;;
15194;SDS011;7698;42.478;23.756;2022-07-22T12:18:55;467.23;;;438.02;;
15194;SDS011;7698;42.478;23.756;2022-07-22T12:21:25;451.42;;;423.65;;
15194;SDS011;7698;42.478;23.756;2022-07-22T12:23:54;454.50;;;427.08;;
15194;SDS011;7698;42.478;23.756;2022-07-22T12:26:36;443.67;;;416.63;;
15194;SDS011;7698;42.478;23.756;2022-07-22T12:29:18;491.42;;;459.80;;
15194;SDS011;7698;42.478;23.756;2022-07-22T12:31:50;433.83;;;407.90;;
15194;SDS011;7698;42.478;23.756;2022-07-22T12:37:13;485.90;;;455.80;;
15194;SDS011;7698;42.478;23.756;2022-07-22T12:39:54;453.73;;;425.63;;
15194;SDS011;7698;42.478;23.756;2022-07-22T12:42:22;499.42;;;457.50;;
15194;SDS011;7698;42.478;23.756;2022-07-22T12:44:50;444.00;;;416.95;;
15194;SDS011;7698;42.478;23.756;2022-07-22T12:50:16;573.80;;;527.33;;
15194;SDS011;7698;42.478;23.756;2022-07-22T12:52:45;512.13;;;478.38;;
15194;SDS011;7698;42.478;23.756;2022-07-22T12:55:12;521.22;;;486.48;;
15194;SDS011;7698;42.478;23.756;2022-07-22T12:57:39;570.53;;;529.83;;
15194;SDS011;7698;42.478;23.756;2022-07-22T13:00:06;585.85;;;544.50;;
15194;SDS011;7698;42.478;23.756;2022-07-22T13:02:34;522.38;;;485.27;;
15194;SDS011;7698;42.478;23.756;2022-07-22T13:05:01;501.30;;;462.50;;
15194;SDS011;7698;42.478;23.756;2022-07-22T13:07:31;460.80;;;430.95;;
15194;SDS011;7698;42.478;23.756;2022-07-22T13:09:59;573.38;;;533.50;;
15194;SDS011;7698;42.478;23.756;2022-07-22T13:12:26;562.05;;;522.90;;
15194;SDS011;7698;42.478;23.756;2022-07-22T13:14:54;492.42;;;459.33;;
15194;SDS011;7698;42.478;23.756;2022-07-22T13:17:21;455.63;;;428.63;;
15194;SDS011;7698;42.478;23.756;2022-07-22T13:19:48;457.45;;;429.35;;
15194;SDS011;7698;42.478;23.756;2022-07-22T13:22:15;476.08;;;443.40;;
15194;SDS011;7698;42.478;23.756;2022-07-22T13:24:44;637.55;;;572.08;;
15194;SDS011;7698;42.478;23.756;2022-07-22T13:27:11;591.15;;;547.85;;
15194;SDS011;7698;42.478;23.756;2022-07-22T13:29:39;605.63;;;561.15;;
15194;SDS011;7698;42.478;23.756;2022-07-22T13:32:06;571.35;;;527.88;;
15194;SDS011;7698;42.478;23.756;2022-07-22T13:34:34;552.10;;;509.38;;
15194;SDS011;7698;42.478;23.756;2022-07-22T13:37:01;479.13;;;445.30;;
15194;SDS011;7698;42.478;23.756;2022-07-22T13:39:29;451.35;;;422.60;;
15194;SDS011;7698;42.478;23.756;2022-07-22T13:44:40;392.98;;;371.60;;
15194;SDS011;7698;42.478;23.756;2022-07-22T13:47:08;445.17;;;419.13;;
15194;SDS011;7698;42.478;23.756;2022-07-22T13:49:35;449.08;;;418.40;;
15194;SDS011;7698;42.478;23.756;2022-07-22T13:52:04;462.13;;;433.83;;
15194;SDS011;7698;42.478;23.756;2022-07-22T13:54:31;434.50;;;409.77;;
15194;SDS011;7698;42.478;23.756;2022-07-22T13:56:59;433.65;;;408.85;;
15194;SDS011;7698;42.478;23.756;2022-07-22T13:59:27;460.48;;;433.30;;
15194;SDS011;7698;42.478;23.756;2022-07-22T14:01:56;477.85;;;448.17;;
15194;SDS011;7698;42.478;23.756;2022-07-22T14:04:24;424.67;;;401.08;;
15194;SDS011;7698;42.478;23.756;2022-07-22T14:06:52;488.02;;;456.70;;
15194;SDS011;7698;42.478;23.756;2022-07-22T14:09:19;437.38;;;412.58;;
15194;SDS011;7698;42.478;23.756;2022-07-22T14:11:46;459.38;;;430.63;;
15194;SDS011;7698;42.478;23.756;2022-07-22T14:14:14;440.95;;;412.58;;
15194;SDS011;7698;42.478;23.756;2022-07-22T14:16:41;493.80;;;463.17;;
15194;SDS011;7698;42.478;23.756;2022-07-22T14:19:11;417.50;;;393.60;;
15194;SDS011;7698;42.478;23.756;2022-07-22T14:21:40;417.35;;;394.27;;
15194;SDS011;7698;42.478;23.756;2022-07-22T14:24:09;467.70;;;437.38;;
15194;SDS011;7698;42.478;23.756;2022-07-22T14:26:37;463.08;;;435.27;;